Impacts TAF Board
For situational awareness. Not to be used for flight planning purposes.
IDs:

KGEG - Spokane Intl, WA, US

Issued at 1723 UTC 08 Aug 2020
Updated at 2145 UTC 08 Aug 2020
Potential Impact None Slight Moderate High
Time2053Z 08/22Z 08/23Z 09/00Z 09/01Z 09/02Z 09/03Z 09/04Z 09/05Z 09/06Z 09/07Z 09/08Z 09/09Z 09/10Z>>
Type OBS PRVL PRVL PRVL PRVL PRVL PRVL PRVL PRVL PRVL PRVL PRVL PRVL PRVL
VIS 10 >6 >6 >6 >6 >6 >6 >6 >6 >6 >6 >6 >6 >6
CIG 90 250 250 250 -- -- -- -- -- -- -- -- -- --
Cover BKN BKN BKN BKN SCT SCT SCT SCT FEW FEW FEW FEW FEW SKC
FltCat VFR VFR VFR VFR VFR VFR VFR VFR VFR VFR VFR VFR VFR VFR
WX -- -- -- -- -- -- -- -- -- -- -- -- -- --
WDir 160 240 240 240 250 250 250 250 260 260 260 260 260 VRB
WSpd 8 13 13 13 11 11 11 11 6 6 6 6 6 4
WGst -- 21 21 21 -- -- -- -- -- -- -- -- -- --
Raw TAF
KGEG 081723Z 0818/0918 21011KT P6SM SCT060 BKN080
  FM082100 24013G21KT P6SM SCT080 BKN250
  FM090100 25011KT P6SM FEW090 SCT250
  FM090500 26006KT P6SM FEW250
  FM091000 VRB04KT P6SM SKC


Raw METAR
KGEG 082053Z 16008KT 10SM FEW050 SCT070 BKN090 BKN200 23/07 A3005 RMK AO2 SLP166 T02330072 58010
KGEG 081953Z 22009KT 190V250 10SM FEW050 SCT070 BKN085 BKN200 22/07 A3007 RMK AO2 SLP171 T02170067
KGEG 081853Z 21006G17KT 10SM FEW035 SCT060 BKN085 BKN200 21/06 A3008 RMK AO2 SLP175 T02110061

METAR Board
Radar Display
Forecast Discussion
For situational awareness. Not to be used for flight planning purposes.